Time;durP1;ratioP1;P1;durP2;ratioP2;P2;SDS_P1;SDS_P2;PMS_P1;PMS_P2;Temp;Humidity;BMP_temperature;BMP_pressure;BME280_temperature;BME280_humidity;BME280_pressure;Samples;Min_cycle;Max_cycle;Signal;HPM_P1;HPM_P2
2022/09/11 00:00:44;;;;;;;;;;;25.00;50.70;23.80;101183.00;;;;5102999;27;19912;-70
2022/09/11 00:03:30;;;;;;;;;;;24.90;50.70;23.80;101188.00;;;;5080513;28;20372;-70
2022/09/11 00:06:19;;;;;;;;;;;25.00;50.70;23.80;101193.00;;;;5098307;28;19912;-70
2022/09/11 00:09:05;;;;;;;;;;;25.00;50.70;23.80;101203.00;;;;5098762;27;19918;-70
2022/09/11 00:11:51;;;;;;;;;;;25.00;50.80;23.80;101197.00;;;;5080669;28;19915;-70
2022/09/11 00:14:37;;;;;;;;;;;25.00;50.70;23.80;101203.00;;;;5098553;27;19915;-70
2022/09/11 00:17:23;;;;;;;;;;;25.00;50.70;23.80;101196.00;;;;5096974;27;19976;-70
2022/09/11 00:20:09;;;;;;;;;;;25.00;50.80;23.80;101199.00;;;;5100765;27;19912;-70
2022/09/11 00:22:57;;;;;;;;;;;25.10;50.90;23.80;101194.00;;;;5098842;27;20280;-70
2022/09/11 00:25:45;;;;;;;;;;;25.00;50.80;23.80;101198.00;;;;5101237;28;20002;-70
2022/09/11 00:28:31;;;;;;;;;;;25.00;50.80;23.80;101207.00;;;;5103646;27;19915;-70
2022/09/11 00:31:18;;;;;;;;;;;25.00;50.80;23.80;101200.00;;;;5097608;28;20136;-70
2022/09/11 00:34:05;;;;;;;;;;;25.00;50.80;23.80;101203.00;;;;5099797;28;19922;-70
2022/09/11 00:36:52;;;;;;;;;;;25.00;50.80;23.80;101212.00;;;;5085997;28;19947;-70
2022/09/11 00:39:38;;;;;;;;;;;25.00;50.80;23.80;101211.00;;;;5092354;28;19923;-70
2022/09/11 00:42:24;;;;;;;;;;;24.90;50.80;23.80;101212.00;;;;5095571;28;19927;-70
2022/09/11 00:45:20;;;;;;;;;;;24.90;50.80;23.70;101215.00;;;;5098958;28;19911;-70
2022/09/11 00:48:06;;;;;;;;;;;24.90;50.80;23.70;101214.00;;;;5100942;28;20393;-70
2022/09/11 00:50:53;;;;;;;;;;;24.90;50.80;23.70;101208.00;;;;5082499;28;19911;-70
2022/09/11 00:53:39;;;;;;;;;;;24.90;50.80;23.70;101218.00;;;;5077792;28;20006;-70
2022/09/11 00:56:27;;;;;;;;;;;24.90;50.80;23.70;101226.00;;;;5096840;28;19964;-70
2022/09/11 00:59:12;;;;;;;;;;;24.90;50.80;23.70;101228.00;;;;5096241;28;19912;-70
2022/09/11 01:01:59;;;;;;;;;;;24.90;50.80;23.70;101227.00;;;;5097360;28;19949;-70
2022/09/11 01:04:45;;;;;;;;;;;24.90;50.80;23.70;101228.00;;;;5096592;28;19990;-70
2022/09/11 01:07:31;;;;;;;;;;;24.90;50.80;23.70;101236.00;;;;5095177;28;19912;-70
2022/09/11 01:10:17;;;;;;;;;;;24.90;50.80;23.70;101230.00;;;;5100916;28;19982;-70
2022/09/11 01:13:12;;;;;;;;;;;24.90;51.60;23.70;101241.00;;;;5093884;28;19912;-70
2022/09/11 01:16:26;;;;;;;;;;;24.90;50.90;23.70;101245.00;;;;5087723;28;20280;-70
2022/09/11 01:19:23;;;;;;;;;;;24.90;50.90;23.70;101243.00;;;;5094975;27;20408;-70
2022/09/11 01:22:30;;;;;;;;;;;24.90;50.90;23.70;101248.00;;;;5101509;27;20360;-70
2022/09/11 01:25:45;;;;;;;;;;;24.90;50.90;23.70;101239.00;;;;5109931;27;19934;-70
2022/09/11 01:28:45;;;;;;;;;;;24.90;50.90;23.70;101250.00;;;;5094620;27;19916;-70
2022/09/11 01:31:55;;;;;;;;;;;24.80;50.80;23.70;101253.00;;;;5087553;28;19935;-70
2022/09/11 01:34:51;;;;;;;;;;;24.80;50.90;23.70;101254.00;;;;5096084;28;20364;-70
2022/09/11 01:38:02;;;;;;;;;;;24.80;50.80;23.70;101252.00;;;;5084974;28;20018;-70
2022/09/11 01:40:53;;;;;;;;;;;24.80;50.80;23.70;101253.00;;;;5089724;28;19911;-70
2022/09/11 01:43:51;;;;;;;;;;;24.80;50.80;23.60;101252.00;;;;5106414;27;19933;-70
2022/09/11 01:46:42;;;;;;;;;;;24.80;50.90;23.60;101256.00;;;;5085975;28;19915;-70
2022/09/11 01:49:32;;;;;;;;;;;24.80;50.80;23.60;101257.00;;;;5084552;27;20360;-70
2022/09/11 01:52:20;;;;;;;;;;;24.80;50.80;23.60;101249.00;;;;5098732;27;20361;-70
2022/09/11 01:55:16;;;;;;;;;;;24.80;50.80;23.60;101246.00;;;;5103284;27;20284;-70
2022/09/11 01:58:05;;;;;;;;;;;24.80;50.90;23.60;101254.00;;;;5084388;28;20280;-70
2022/09/11 02:00:52;;;;;;;;;;;24.80;50.90;23.70;101259.00;;;;5084110;28;19917;-70
2022/09/11 02:03:41;;;;;;;;;;;24.80;50.80;23.60;101260.00;;;;5088275;27;19994;-70
2022/09/11 02:06:34;;;;;;;;;;;24.90;50.90;23.60;101254.00;;;;5092738;27;20368;-70
2022/09/11 02:09:20;;;;;;;;;;;24.80;50.80;23.60;101256.00;;;;5087639;27;19911;-70
2022/09/11 02:12:07;;;;;;;;;;;24.80;50.80;23.60;101258.00;;;;5087285;27;19924;-70
2022/09/11 02:14:53;;;;;;;;;;;24.80;50.80;23.60;101263.00;;;;5087147;27;20410;-70
2022/09/11 02:17:47;;;;;;;;;;;24.80;51.00;23.60;101266.00;;;;5094634;28;19924;-70
2022/09/11 02:20:33;;;;;;;;;;;24.80;50.80;23.60;101268.00;;;;5085498;28;19912;-70
2022/09/11 02:23:19;;;;;;;;;;;24.70;50.80;23.60;101265.00;;;;5082572;28;20007;-70
2022/09/11 02:26:05;;;;;;;;;;;24.80;50.80;23.60;101272.00;;;;5103165;27;19915;-70
2022/09/11 02:28:52;;;;;;;;;;;24.80;50.80;23.60;101274.00;;;;5092416;27;19999;-70
2022/09/11 02:31:38;;;;;;;;;;;24.80;50.80;23.60;101276.00;;;;5111382;27;19924;-70
2022/09/11 02:34:26;;;;;;;;;;;24.80;50.90;23.60;101275.00;;;;5112580;27;19963;-71
2022/09/11 02:37:12;;;;;;;;;;;24.90;50.90;23.60;101286.00;;;;5081862;28;19915;-70
2022/09/11 02:40:18;;;;;;;;;;;24.80;50.80;23.60;101290.00;;;;5097775;27;19912;-70
2022/09/11 02:43:08;;;;;;;;;;;24.80;50.90;23.60;101286.00;;;;5097025;28;19915;-70
2022/09/11 02:46:13;;;;;;;;;;;24.90;50.90;23.60;101286.00;;;;5089360;28;19927;-70
2022/09/11 02:49:18;;;;;;;;;;;24.80;50.90;23.60;101294.00;;;;5083045;28;20002;-70
2022/09/11 02:52:19;;;;;;;;;;;24.80;50.90;23.60;101301.00;;;;5093224;27;19912;-70
2022/09/11 02:55:27;;;;;;;;;;;24.80;50.90;23.60;101298.00;;;;5090591;27;20353;-70
2022/09/11 02:58:20;;;;;;;;;;;24.80;50.90;23.60;101298.00;;;;5100302;27;19923;-70
2022/09/11 03:01:07;;;;;;;;;;;24.80;50.90;23.60;101302.00;;;;5075491;28;20329;-70
2022/09/11 03:03:53;;;;;;;;;;;24.80;50.90;23.60;101301.00;;;;5086374;28;19919;-70
2022/09/11 03:06:42;;;;;;;;;;;24.80;50.90;23.60;101296.00;;;;5101837;27;20011;-70
2022/09/11 03:09:28;;;;;;;;;;;24.80;50.90;23.60;101304.00;;;;5098109;28;19916;-70
2022/09/11 03:12:14;;;;;;;;;;;24.80;50.90;23.60;101299.00;;;;5102344;28;19916;-70
2022/09/11 03:15:01;;;;;;;;;;;24.80;50.90;23.60;101293.00;;;;5093761;27;19950;-70
2022/09/11 03:17:47;;;;;;;;;;;24.80;50.90;23.60;101293.00;;;;5097733;27;20391;-70
2022/09/11 03:20:33;;;;;;;;;;;24.80;50.90;23.60;101296.00;;;;5104888;27;19911;-70
2022/09/11 03:23:19;;;;;;;;;;;24.70;50.80;23.60;101303.00;;;;5101987;27;19919;-70
2022/09/11 03:26:05;;;;;;;;;;;24.80;50.90;23.60;101300.00;;;;5101079;27;19919;-70
2022/09/11 03:28:52;;;;;;;;;;;24.80;50.90;23.60;101305.00;;;;5093642;28;19916;-70
2022/09/11 03:31:38;;;;;;;;;;;24.80;50.90;23.60;101299.00;;;;5095903;28;19912;-70
2022/09/11 03:34:24;;;;;;;;;;;24.80;50.90;23.60;101306.00;;;;5099952;28;20323;-70
2022/09/11 03:37:10;;;;;;;;;;;24.80;50.90;23.60;101300.00;;;;5097393;28;19934;-70
2022/09/11 03:39:56;;;;;;;;;;;24.80;50.90;23.60;101311.00;;;;5090219;28;19916;-70
2022/09/11 03:42:42;;;;;;;;;;;24.80;50.90;23.60;101305.00;;;;5094822;28;19912;-70
2022/09/11 03:45:29;;;;;;;;;;;24.80;50.90;23.60;101306.00;;;;5094621;28;19912;-70
2022/09/11 03:48:15;;;;;;;;;;;24.80;50.90;23.60;101311.00;;;;5096855;28;19962;-70
2022/09/11 03:51:03;;;;;;;;;;;24.80;50.90;23.60;101306.00;;;;5098028;28;19916;-70
2022/09/11 03:53:49;;;;;;;;;;;24.80;50.90;23.60;101308.00;;;;5101453;28;19985;-70
2022/09/11 03:56:36;;;;;;;;;;;24.80;51.60;23.60;101306.00;;;;5095883;28;19916;-70
2022/09/11 03:59:22;;;;;;;;;;;24.80;50.90;23.60;101306.00;;;;5078391;28;19911;-70
2022/09/11 04:02:08;;;;;;;;;;;24.80;50.90;23.60;101306.00;;;;5094293;28;19915;-70
2022/09/11 04:04:54;;;;;;;;;;;24.80;50.90;23.60;101305.00;;;;5100082;28;19915;-70
2022/09/11 04:07:40;;;;;;;;;;;24.70;50.90;23.60;101310.00;;;;5094745;28;19934;-70
2022/09/11 04:10:26;;;;;;;;;;;24.80;50.90;23.60;101318.00;;;;5099946;28;19915;-70
2022/09/11 04:13:12;;;;;;;;;;;24.70;50.90;23.60;101319.00;;;;5092972;28;19919;-70
2022/09/11 04:16:05;;;;;;;;;;;24.80;51.60;23.60;101324.00;;;;5095568;27;19919;-70
2022/09/11 04:18:53;;;;;;;;;;;24.80;50.90;23.60;101324.00;;;;5099482;28;20365;-70
2022/09/11 04:21:39;;;;;;;;;;;24.80;50.90;23.60;101331.00;;;;5101002;27;19956;-70
2022/09/11 04:24:25;;;;;;;;;;;24.80;50.90;23.60;101337.00;;;;5099675;27;19937;-70
2022/09/11 04:27:11;;;;;;;;;;;24.80;51.00;23.50;101333.00;;;;5095835;28;19919;-70
2022/09/11 04:29:57;;;;;;;;;;;24.80;50.90;23.60;101334.00;;;;5099384;27;19912;-70
2022/09/11 04:32:45;;;;;;;;;;;24.80;51.00;23.50;101333.00;;;;5087864;28;20009;-70
2022/09/11 04:35:31;;;;;;;;;;;24.70;50.90;23.60;101344.00;;;;5100016;28;19915;-70
2022/09/11 04:38:17;;;;;;;;;;;24.80;51.00;23.60;101339.00;;;;5096750;28;19941;-70
2022/09/11 04:41:04;;;;;;;;;;;24.70;50.90;23.50;101344.00;;;;5095095;28;19949;-70
2022/09/11 04:43:53;;;;;;;;;;;24.70;50.90;23.50;101349.00;;;;5098966;28;20366;-70
2022/09/11 04:46:40;;;;;;;;;;;24.80;51.00;23.60;101356.00;;;;5099103;28;19973;-70
2022/09/11 04:49:26;;;;;;;;;;;24.80;51.00;23.60;101358.00;;;;5098421;28;20365;-70
2022/09/11 04:52:12;;;;;;;;;;;24.80;51.00;23.60;101362.00;;;;5097535;28;19998;-70
2022/09/11 04:54:57;;;;;;;;;;;24.80;51.00;23.50;101355.00;;;;5098113;27;19966;-70
2022/09/11 04:57:44;;;;;;;;;;;24.80;51.00;23.50;101355.00;;;;5097330;27;19916;-70
2022/09/11 05:00:30;;;;;;;;;;;24.70;51.00;23.60;101365.00;;;;5105488;27;19911;-70
2022/09/11 05:03:16;;;;;;;;;;;24.70;51.00;23.60;101366.00;;;;5106466;27;19916;-70
2022/09/11 05:06:06;;;;;;;;;;;24.70;51.00;23.50;101363.00;;;;5105867;27;19962;-70
2022/09/11 05:08:52;;;;;;;;;;;24.70;51.00;23.60;101356.00;;;;5100259;27;19912;-70
2022/09/11 05:11:38;;;;;;;;;;;24.70;51.00;23.50;101352.00;;;;5104371;27;20407;-70
2022/09/11 05:14:24;;;;;;;;;;;24.80;51.00;23.60;101359.00;;;;5103297;27;20311;-70
2022/09/11 05:17:12;;;;;;;;;;;24.80;51.00;23.50;101366.00;;;;5104558;27;19919;-70
2022/09/11 05:19:58;;;;;;;;;;;24.80;51.00;23.50;101364.00;;;;5105005;27;20312;-70
2022/09/11 05:22:44;;;;;;;;;;;24.80;51.00;23.60;101361.00;;;;5099840;27;20285;-70
2022/09/11 05:25:30;;;;;;;;;;;24.80;51.00;23.50;101368.00;;;;5102099;27;20356;-70
2022/09/11 05:28:16;;;;;;;;;;;24.70;50.90;23.50;101378.00;;;;5101468;27;19920;-70
2022/09/11 05:31:12;;;;;;;;;;;24.80;51.00;23.50;101379.00;;;;5102236;27;19912;-70
2022/09/11 05:33:59;;;;;;;;;;;24.80;51.00;23.50;101385.00;;;;5099993;27;19962;-70
2022/09/11 05:36:45;;;;;;;;;;;24.80;51.00;23.50;101396.00;;;;5100749;27;19920;-70
2022/09/11 05:39:31;;;;;;;;;;;24.80;51.00;23.50;101388.00;;;;5091225;27;19912;-70
2022/09/11 05:42:17;;;;;;;;;;;24.80;51.00;23.50;101395.00;;;;5099059;27;19953;-70
2022/09/11 05:45:04;;;;;;;;;;;24.70;51.00;23.50;101395.00;;;;5097435;28;20200;-70
2022/09/11 05:47:50;;;;;;;;;;;24.80;51.00;23.50;101395.00;;;;5103276;27;19951;-70
2022/09/11 05:50:36;;;;;;;;;;;24.70;50.90;23.50;101406.00;;;;5099169;28;19912;-70
2022/09/11 05:53:22;;;;;;;;;;;24.80;51.00;23.50;101410.00;;;;5105033;27;19912;-70
2022/09/11 05:56:15;;;;;;;;;;;24.80;51.00;23.50;101414.00;;;;5099197;27;19920;-70
2022/09/11 05:59:01;;;;;;;;;;;24.80;51.00;23.50;101416.00;;;;5103216;27;20531;-70
2022/09/11 06:01:47;;;;;;;;;;;24.70;51.00;23.50;101421.00;;;;5093003;27;20311;-70
2022/09/11 06:04:33;;;;;;;;;;;24.80;51.00;23.50;101427.00;;;;5103049;27;20324;-70
2022/09/11 06:07:19;;;;;;;;;;;24.80;51.00;23.50;101426.00;;;;5095519;28;19945;-70
2022/09/11 06:10:06;;;;;;;;;;;24.70;51.00;23.50;101428.00;;;;5105345;27;20309;-70
2022/09/11 06:12:52;;;;;;;;;;;24.80;51.00;23.50;101432.00;;;;5099233;27;19919;-70
2022/09/11 06:15:45;;;;;;;;;;;24.80;51.70;23.50;101436.00;;;;5100154;28;19916;-70
2022/09/11 06:18:31;;;;;;;;;;;24.80;51.00;23.50;101436.00;;;;5095009;27;20364;-70
2022/09/11 06:21:18;;;;;;;;;;;24.60;51.00;23.50;101434.00;;;;5083159;28;19951;-70
2022/09/11 06:24:04;;;;;;;;;;;24.80;51.00;23.50;101440.00;;;;5103174;28;20273;-66
2022/09/11 06:26:50;;;;;;;;;;;24.80;51.00;23.50;101442.00;;;;5097339;28;19927;-67
2022/09/11 06:29:37;;;;;;;;;;;24.80;51.20;23.50;101448.00;;;;5097898;28;19927;-66
2022/09/11 06:32:23;;;;;;;;;;;24.80;51.00;23.50;101445.00;;;;5103016;28;20010;-66
2022/09/11 06:35:09;;;;;;;;;;;24.80;51.00;23.50;101448.00;;;;5106166;28;19964;-66
2022/09/11 06:37:55;;;;;;;;;;;24.80;51.00;23.60;101441.00;;;;5096868;28;19912;-67
2022/09/11 06:40:41;;;;;;;;;;;24.80;51.00;23.50;101446.00;;;;5098384;27;20276;-66
2022/09/11 06:43:27;;;;;;;;;;;24.80;51.00;23.50;101445.00;;;;5095152;27;19916;-67
2022/09/11 06:46:15;;;;;;;;;;;24.80;51.00;23.60;101450.00;;;;5100696;27;19915;-66
2022/09/11 06:49:01;;;;;;;;;;;24.80;51.00;23.60;101453.00;;;;5102989;27;19911;-66
2022/09/11 06:51:47;;;;;;;;;;;24.80;51.00;23.50;101456.00;;;;5092695;27;19916;-66
2022/09/11 06:54:33;;;;;;;;;;;24.80;51.00;23.50;101456.00;;;;5099243;27;19912;-66
2022/09/11 06:57:19;;;;;;;;;;;24.80;51.00;23.60;101452.00;;;;5100120;27;20339;-66
2022/09/11 07:00:05;;;;;;;;;;;24.80;51.00;23.60;101452.00;;;;5098858;27;19919;-66
2022/09/11 07:02:55;;;;;;;;;;;24.80;51.00;23.50;101465.00;;;;5096837;27;19923;-66
2022/09/11 07:05:46;;;;;;;;;;;24.80;51.00;23.50;101459.00;;;;5086329;27;19988;-66
2022/09/11 07:08:32;;;;;;;;;;;24.80;51.00;23.50;101458.00;;;;5086923;27;19999;-66
2022/09/11 07:11:18;;;;;;;;;;;24.80;51.00;23.50;101457.00;;;;5094787;28;20373;-66
2022/09/11 07:14:05;;;;;;;;;;;24.80;51.00;23.50;101463.00;;;;5092275;28;19916;-66
2022/09/11 07:16:53;;;;;;;;;;;24.80;51.00;23.50;101453.00;;;;5096115;27;19916;-66
2022/09/11 07:19:39;;;;;;;;;;;24.80;51.00;23.50;101456.00;;;;5098821;27;19912;-66
2022/09/11 07:22:25;;;;;;;;;;;24.80;51.00;23.50;101447.00;;;;5095323;27;19911;-66
2022/09/11 07:25:11;;;;;;;;;;;24.80;51.00;23.60;101453.00;;;;5082946;27;19923;-66
2022/09/11 07:27:57;;;;;;;;;;;24.80;51.70;23.50;101452.00;;;;5091576;28;19919;-66
2022/09/11 07:30:43;;;;;;;;;;;24.80;51.00;23.50;101465.00;;;;5099400;27;20364;-66
2022/09/11 07:33:29;;;;;;;;;;;24.80;51.00;23.60;101461.00;;;;5094553;27;19911;-66
2022/09/11 07:36:17;;;;;;;;;;;24.80;51.00;23.50;101463.00;;;;5100131;27;19927;-66
2022/09/11 07:39:03;;;;;;;;;;;24.80;51.00;23.50;101465.00;;;;5093733;27;19916;-66
2022/09/11 07:41:49;;;;;;;;;;;24.80;51.00;23.60;101475.00;;;;5076668;28;19917;-66
2022/09/11 07:44:35;;;;;;;;;;;24.80;51.00;23.50;101467.00;;;;5091342;27;19921;-66
2022/09/11 07:47:21;;;;;;;;;;;24.80;51.00;23.60;101479.00;;;;5093930;27;20379;-66
2022/09/11 07:50:07;;;;;;;;;;;24.80;51.00;23.50;101476.00;;;;5105855;27;19925;-66
2022/09/11 07:52:53;;;;;;;;;;;24.80;51.00;23.60;101481.00;;;;5101412;27;19915;-66
2022/09/11 07:55:39;;;;;;;;;;;24.80;51.00;23.60;101486.00;;;;5094102;27;19916;-66
2022/09/11 07:58:26;;;;;;;;;;;24.80;51.00;23.50;101481.00;;;;5098083;27;19934;-66
2022/09/11 08:01:13;;;;;;;;;;;24.80;51.00;23.60;101489.00;;;;5095837;27;19916;-66
2022/09/11 08:04:01;;;;;;;;;;;24.80;51.00;23.60;101486.00;;;;5093548;27;19912;-66
2022/09/11 08:06:47;;;;;;;;;;;24.80;51.00;23.60;101492.00;;;;5098893;27;19919;-67
2022/09/11 08:09:33;;;;;;;;;;;24.80;51.70;23.60;101493.00;;;;5099982;27;19915;-66
2022/09/11 08:12:19;;;;;;;;;;;24.80;51.10;23.50;101495.00;;;;5093471;28;20269;-66
2022/09/11 08:15:05;;;;;;;;;;;24.80;51.10;23.50;101498.00;;;;5096050;27;19916;-67
2022/09/11 08:17:51;;;;;;;;;;;24.80;51.00;23.50;101505.00;;;;5096686;28;19929;-67
2022/09/11 08:20:37;;;;;;;;;;;24.80;51.10;23.50;101500.00;;;;5104003;27;20069;-68
2022/09/11 08:23:23;;;;;;;;;;;24.80;51.10;23.50;101502.00;;;;5099638;27;19916;-65
2022/09/11 08:26:29;;;;;;;;;;;24.80;51.10;23.50;101505.00;;;;5107898;27;19919;-66
2022/09/11 08:29:15;;;;;;;;;;;24.80;51.10;23.50;101508.00;;;;5093414;27;20372;-66
2022/09/11 08:32:01;;;;;;;;;;;24.80;51.10;23.50;101514.00;;;;5090310;27;20421;-66
2022/09/11 08:34:47;;;;;;;;;;;24.80;51.10;23.50;101516.00;;;;5095989;27;19926;-66
2022/09/11 08:37:33;;;;;;;;;;;24.70;51.10;23.50;101512.00;;;;5090174;28;20369;-66
2022/09/11 08:40:19;;;;;;;;;;;24.80;51.10;23.50;101516.00;;;;5091987;28;20115;-66
2022/09/11 08:43:05;;;;;;;;;;;24.80;51.20;23.50;101519.00;;;;5101622;28;19912;-66
2022/09/11 08:45:58;;;;;;;;;;;24.70;51.20;23.50;101527.00;;;;5081075;28;19912;-66
2022/09/11 08:49:10;;;;;;;;;;;24.80;51.20;23.50;101524.00;;;;5094357;28;19943;-66
2022/09/11 08:51:57;;;;;;;;;;;24.70;51.20;23.50;101527.00;;;;5088972;28;20429;-67
2022/09/11 08:54:44;;;;;;;;;;;24.80;51.20;23.50;101527.00;;;;5080344;28;20361;-67
2022/09/11 08:57:42;;;;;;;;;;;24.80;51.20;23.50;101528.00;;;;5080936;28;20347;-66
2022/09/11 09:01:00;;;;;;;;;;;24.80;51.20;23.50;101532.00;;;;5094373;28;19980;-66
2022/09/11 09:04:01;;;;;;;;;;;24.80;51.20;23.50;101537.00;;;;5089223;28;20225;-67
2022/09/11 09:07:01;;;;;;;;;;;24.80;51.20;23.50;101540.00;;;;5087292;28;20669;-67
2022/09/11 09:09:58;;;;;;;;;;;24.80;51.20;23.50;101546.00;;;;5080559;28;20410;-67
2022/09/11 09:13:17;;;;;;;;;;;24.80;51.20;23.60;101542.00;;;;5076577;28;19915;-67
2022/09/11 09:16:11;;;;;;;;;;;24.80;51.20;23.50;101550.00;;;;5093723;28;19915;-67
2022/09/11 09:19:02;;;;;;;;;;;24.80;51.10;23.60;101548.00;;;;5097582;28;20195;-67
2022/09/11 09:21:58;;;;;;;;;;;24.80;51.20;23.60;101553.00;;;;5073814;28;19915;-67
2022/09/11 09:24:49;;;;;;;;;;;24.80;51.10;23.60;101550.00;;;;5097195;28;19915;-67
2022/09/11 09:27:38;;;;;;;;;;;24.80;51.20;23.60;101556.00;;;;5095079;28;19959;-67
2022/09/11 09:30:26;;;;;;;;;;;24.80;51.10;23.60;101557.00;;;;5090494;28;19973;-68
2022/09/11 09:33:24;;;;;;;;;;;24.80;51.10;23.60;101555.00;;;;5088733;28;19915;-68
2022/09/11 09:36:15;;;;;;;;;;;24.80;51.10;23.60;101556.00;;;;5102218;28;19916;-68
2022/09/11 09:39:01;;;;;;;;;;;24.80;51.10;23.60;101555.00;;;;5088136;28;20373;-67
2022/09/11 09:42:23;;;;;;;;;;;24.80;51.10;23.60;101562.00;;;;5094144;28;19916;-67
2022/09/11 09:45:31;;;;;;;;;;;24.80;51.10;23.60;101564.00;;;;5106363;27;19916;-67
2022/09/11 09:48:17;;;;;;;;;;;24.80;51.10;23.60;101560.00;;;;5099298;27;20000;-67
2022/09/11 09:51:03;;;;;;;;;;;24.80;51.10;23.60;101568.00;;;;5080299;28;19916;-69
2022/09/11 09:53:57;;;;;;;;;;;25.20;51.30;23.60;101567.00;;;;5109890;27;19943;-74
2022/09/11 09:56:48;;;;;;;;;;;24.90;51.10;23.60;101567.00;;;;5081944;28;20604;-68
2022/09/11 09:59:39;;;;;;;;;;;24.80;51.10;23.60;101564.00;;;;5094673;27;20010;-68
2022/09/11 10:02:53;;;;;;;;;;;24.90;51.10;23.60;101565.00;;;;5094464;28;19957;-68
2022/09/11 10:05:40;;;;;;;;;;;24.90;51.10;23.60;101560.00;;;;5097025;27;19947;-68
2022/09/11 10:08:33;;;;;;;;;;;24.90;51.10;23.60;101567.00;;;;5083262;28;20006;-68
2022/09/11 10:11:19;;;;;;;;;;;24.90;51.00;23.60;101559.00;;;;5081542;28;19915;-68
2022/09/11 10:14:07;;;;;;;;;;;24.90;51.10;23.60;101557.00;;;;5073354;28;19922;-68
2022/09/11 10:16:53;;;;;;;;;;;24.90;51.00;23.60;101551.00;;;;5073155;28;19920;-68
2022/09/11 10:19:41;;;;;;;;;;;24.90;51.00;23.70;101559.00;;;;5095840;28;19919;-68
2022/09/11 10:22:30;;;;;;;;;;;24.90;51.00;23.70;101561.00;;;;5094988;28;20281;-68
2022/09/11 10:25:25;;;;;;;;;;;25.00;51.00;23.70;101569.00;;;;5097314;27;19911;-68
2022/09/11 10:28:13;;;;;;;;;;;25.00;51.00;23.70;101555.00;;;;5093997;27;19965;-68
2022/09/11 10:31:03;;;;;;;;;;;24.90;50.90;23.70;101564.00;;;;5087067;28;20002;-68
2022/09/11 10:34:13;;;;;;;;;;;24.90;50.90;23.70;101557.00;;;;5111906;27;19938;-68
2022/09/11 10:37:06;;;;;;;;;;;25.00;51.00;23.70;101569.00;;;;5080245;28;20424;-68
2022/09/11 10:39:52;;;;;;;;;;;25.00;50.90;23.70;101562.00;;;;5101506;28;20739;-73
2022/09/11 10:42:40;;;;;;;;;;;25.00;50.90;23.70;101557.00;;;;5086108;28;19930;-67
2022/09/11 10:45:26;;;;;;;;;;;25.00;50.90;23.70;101556.00;;;;5081551;28;20372;-72
2022/09/11 10:48:18;;;;;;;;;;;25.00;50.90;23.70;101561.00;;;;5094960;28;19918;-67
2022/09/11 10:51:06;;;;;;;;;;;25.00;50.90;23.70;101556.00;;;;5070371;28;19958;-73
2022/09/11 10:54:17;;;;;;;;;;;25.00;50.80;23.70;101552.00;;;;5082176;28;19927;-67
2022/09/11 10:57:33;;;;;;;;;;;25.00;50.80;23.70;101554.00;;;;5091179;28;19946;-67
2022/09/11 11:00:27;;;;;;;;;;;25.00;50.80;23.70;101549.00;;;;5084648;28;19970;-67
2022/09/11 11:03:18;;;;;;;;;;;25.00;50.80;23.70;101549.00;;;;5079770;28;19990;-67
2022/09/11 11:06:18;;;;;;;;;;;25.00;50.80;23.70;101546.00;;;;5083728;28;19912;-67
2022/09/11 11:09:12;;;;;;;;;;;25.00;50.80;23.70;101542.00;;;;5100316;28;19915;-67
2022/09/11 11:12:31;;;;;;;;;;;25.00;50.80;23.70;101541.00;;;;5084222;27;19912;-67
2022/09/11 11:15:56;;;;;;;;;;;25.00;50.80;23.70;101545.00;;;;5099416;27;19923;-67
2022/09/11 11:19:08;;;;;;;;;;;25.00;50.70;23.70;101541.00;;;;5098803;28;19995;-67
2022/09/11 11:22:20;;;;;;;;;;;25.00;50.70;23.70;101546.00;;;;5088908;28;20338;-67
2022/09/11 11:25:33;;;;;;;;;;;25.00;50.70;23.70;101556.00;;;;5111703;27;20001;-67
2022/09/11 11:28:33;;;;;;;;;;;25.00;50.70;23.70;101552.00;;;;5093520;28;19912;-67
2022/09/11 11:31:35;;;;;;;;;;;25.10;50.80;23.70;101559.00;;;;5082072;28;19938;-67
2022/09/11 11:34:27;;;;;;;;;;;25.10;50.80;23.70;101550.00;;;;5087198;28;19920;-67
2022/09/11 11:37:20;;;;;;;;;;;25.10;50.80;23.80;101551.00;;;;5099976;27;19922;-67
2022/09/11 11:40:12;;;;;;;;;;;25.10;50.70;23.80;101550.00;;;;5083396;28;19999;-67
2022/09/11 11:43:18;;;;;;;;;;;25.10;50.70;23.80;101550.00;;;;5089954;28;19927;-67
2022/09/11 11:46:10;;;;;;;;;;;25.10;50.70;23.80;101555.00;;;;5088946;28;19916;-67
2022/09/11 11:49:00;;;;;;;;;;;25.10;50.70;23.80;101548.00;;;;5097167;27;20373;-67
2022/09/11 11:52:02;;;;;;;;;;;25.10;50.60;23.80;101546.00;;;;5096495;28;19945;-67
2022/09/11 11:54:52;;;;;;;;;;;25.10;50.60;23.80;101553.00;;;;5085016;28;19957;-67
2022/09/11 11:57:40;;;;;;;;;;;25.20;50.60;23.80;101554.00;;;;5081480;27;19920;-67
2022/09/11 12:00:26;;;;;;;;;;;25.20;50.70;23.80;101548.00;;;;5085199;27;19922;-68
2022/09/11 12:03:17;;;;;;;;;;;25.20;50.60;23.80;101548.00;;;;5081808;28;20334;-68
2022/09/11 12:06:04;;;;;;;;;;;25.20;50.60;23.80;101543.00;;;;5105483;27;19919;-67
2022/09/11 12:08:50;;;;;;;;;;;25.10;50.50;23.80;101545.00;;;;5093272;27;19947;-67
2022/09/11 12:11:36;;;;;;;;;;;25.20;50.50;23.80;101546.00;;;;5093193;27;19947;-67
2022/09/11 12:14:34;;;;;;;;;;;25.20;50.50;23.80;101542.00;;;;5089183;28;19915;-67
2022/09/11 12:17:44;;;;;;;;;;;25.20;50.50;23.80;101537.00;;;;5073648;28;19965;-67
2022/09/11 12:20:35;;;;;;;;;;;25.20;50.40;23.80;101538.00;;;;5084303;28;20446;-67
2022/09/11 12:23:31;;;;;;;;;;;25.20;50.40;23.90;101539.00;;;;5089037;27;20315;-67
2022/09/11 12:26:24;;;;;;;;;;;25.30;50.50;23.90;101539.00;;;;5084577;28;19916;-67
2022/09/11 12:29:10;;;;;;;;;;;25.30;50.50;23.90;101536.00;;;;5091126;28;19912;-67
2022/09/11 12:31:59;;;;;;;;;;;25.30;50.40;23.90;101540.00;;;;5096650;27;19954;-67
2022/09/11 12:34:45;;;;;;;;;;;25.30;50.40;23.90;101534.00;;;;5104932;27;20357;-67
2022/09/11 12:37:34;;;;;;;;;;;25.30;50.40;23.90;101529.00;;;;5105167;28;19919;-67
2022/09/11 12:40:31;;;;;;;;;;;25.30;50.40;23.90;101536.00;;;;5079504;28;20564;-67
2022/09/11 12:43:29;;;;;;;;;;;25.30;50.40;23.90;101532.00;;;;5103257;28;19922;-67
2022/09/11 12:46:22;;;;;;;;;;;25.30;50.30;23.90;101533.00;;;;5098218;28;20369;-67
2022/09/11 12:49:08;;;;;;;;;;;25.30;50.40;23.90;101536.00;;;;5102593;28;19916;-67
2022/09/11 12:51:56;;;;;;;;;;;25.30;51.00;23.90;101533.00;;;;5091313;28;19919;-67
2022/09/11 12:54:43;;;;;;;;;;;25.30;50.30;23.90;101523.00;;;;5082814;28;19923;-67
2022/09/11 12:57:34;;;;;;;;;;;25.30;50.30;23.90;101533.00;;;;5097802;28;19916;-67
2022/09/11 13:00:33;;;;;;;;;;;25.30;50.30;23.90;101525.00;;;;5080322;28;19915;-67
2022/09/11 13:03:23;;;;;;;;;;;25.30;50.30;23.90;101513.00;;;;5083970;28;19912;-67
2022/09/11 13:06:10;;;;;;;;;;;25.30;50.30;23.90;101511.00;;;;5080179;28;19919;-67
2022/09/11 13:09:01;;;;;;;;;;;25.30;50.30;23.90;101516.00;;;;5077042;28;20365;-67
2022/09/11 13:11:48;;;;;;;;;;;25.30;50.30;23.90;101517.00;;;;5088482;28;19942;-67
2022/09/11 13:14:34;;;;;;;;;;;25.30;50.30;23.90;101514.00;;;;5090144;27;20299;-67
2022/09/11 13:17:29;;;;;;;;;;;25.30;50.30;23.90;101510.00;;;;5100995;27;19922;-67
2022/09/11 13:20:15;;;;;;;;;;;25.30;50.30;23.90;101505.00;;;;5103099;27;19969;-67
2022/09/11 13:23:19;;;;;;;;;;;25.30;50.30;23.90;101504.00;;;;5101039;27;20266;-67
2022/09/11 13:26:06;;;;;;;;;;;25.30;50.30;23.90;101498.00;;;;5092434;27;19919;-67
2022/09/11 13:29:10;;;;;;;;;;;25.20;50.20;23.90;101501.00;;;;5089927;27;19918;-66
2022/09/11 13:31:57;;;;;;;;;;;25.40;50.30;23.90;101497.00;;;;5092658;28;19970;-67
2022/09/11 13:34:45;;;;;;;;;;;25.30;50.30;23.90;101496.00;;;;5091225;27;20358;-68
2022/09/11 13:37:37;;;;;;;;;;;25.30;50.20;23.90;101496.00;;;;5088585;28;19920;-66
2022/09/11 13:40:30;;;;;;;;;;;25.30;50.20;23.90;101500.00;;;;5075578;28;19915;-66
2022/09/11 13:43:21;;;;;;;;;;;25.30;50.20;23.90;101494.00;;;;5086821;27;19916;-65